APJ156 RJFF-RJBB
Flight info
| Callsign | APJ156 |
|---|---|
| Flight time | 0h 40m |
| Altitude | 31000 |
| Route | ENGID Y412 MYE Y401 SALTY Y35 IGLEV |
| Aircraft | A320/M-SDE3FGHIRWY/LB1 |
Departure
| Time | 2026-04-30 09:08 |
|---|---|
| Airport | Fukuoka Airport (RJFF) |
Arrival
| Time | 2026-04-30 09:48 |
|---|---|
| Airport | Kansai International Airport (RJBB) |
| Time | Latitude | Longitude | Altitude | Speed | Heading |
|---|---|---|---|---|---|
| 2026-04-30 08:51 | 33.59846 | 130.44656 | 26 ft | 0 kts | 60° |
| 2026-04-30 09:03 | 33.59845 | 130.44655 | 26 ft | 2 kts | 60° |
| 2026-04-30 09:03 | 33.59833 | 130.44628 | 26 ft | 4 kts | 60° |
| 2026-04-30 09:03 | 33.59822 | 130.44606 | 31 ft | 4 kts | 62° |
| 2026-04-30 09:04 | 33.59814 | 130.44576 | 28 ft | 4 kts | 102° |
| 2026-04-30 09:04 | 33.59827 | 130.44551 | 27 ft | 3 kts | 149° |
| 2026-04-30 09:04 | 33.59830 | 130.44548 | 31 ft | 0 kts | 150° |
| 2026-04-30 09:06 | 33.59822 | 130.44554 | 27 ft | 4 kts | 151° |
| 2026-04-30 09:06 | 33.59776 | 130.44525 | 26 ft | 9 kts | 237° |
| 2026-04-30 09:06 | 33.59737 | 130.44442 | 27 ft | 13 kts | 241° |
| 2026-04-30 09:07 | 33.59688 | 130.44354 | 27 ft | 10 kts | 210° |
| 2026-04-30 09:07 | 33.59638 | 130.44357 | 28 ft | 8 kts | 149° |
| 2026-04-30 09:07 | 33.59631 | 130.44362 | 27 ft | 2 kts | 148° |
| 2026-04-30 09:07 | 33.59414 | 130.44512 | 27 ft | 73 kts | 150° |
| 2026-04-30 09:08 | 33.58787 | 130.44940 | 33 ft | 132 kts | 150° |
| 2026-04-30 09:08 | 33.57847 | 130.45568 | 130 ft | 168 kts | 149° |
| 2026-04-30 09:08 | 33.56828 | 130.46234 | 823 ft | 166 kts | 150° |
| 2026-04-30 09:08 | 33.55810 | 130.46883 | 1534 ft | 165 kts | 151° |
| 2026-04-30 09:09 | 33.54772 | 130.47536 | 2053 ft | 174 kts | 151° |
| 2026-04-30 09:09 | 33.53626 | 130.48254 | 2338 ft | 199 kts | 152° |
| 2026-04-30 09:09 | 33.52321 | 130.49070 | 2659 ft | 225 kts | 152° |
| 2026-04-30 09:09 | 33.50858 | 130.49990 | 3093 ft | 247 kts | 152° |
| 2026-04-30 09:10 | 33.49306 | 130.50953 | 3842 ft | 254 kts | 153° |
| 2026-04-30 09:10 | 33.47714 | 130.51933 | 4657 ft | 260 kts | 154° |
| 2026-04-30 09:10 | 33.46088 | 130.52940 | 5453 ft | 267 kts | 154° |
| 2026-04-30 09:10 | 33.44424 | 130.53972 | 6319 ft | 272 kts | 154° |
| 2026-04-30 09:11 | 33.42737 | 130.55021 | 7137 ft | 275 kts | 154° |
| 2026-04-30 09:11 | 33.41032 | 130.56081 | 7976 ft | 277 kts | 155° |
| 2026-04-30 09:11 | 33.39315 | 130.57149 | 8849 ft | 279 kts | 156° |
| 2026-04-30 09:11 | 33.37585 | 130.58215 | 9722 ft | 281 kts | 156° |
| 2026-04-30 09:12 | 33.35834 | 130.59296 | 10377 ft | 291 kts | 157° |
| 2026-04-30 09:12 | 33.33959 | 130.60447 | 10636 ft | 314 kts | 157° |
| 2026-04-30 09:12 | 33.31980 | 130.61664 | 11140 ft | 325 kts | 157° |
| 2026-04-30 09:12 | 33.30024 | 130.63087 | 11784 ft | 337 kts | 145° |
| 2026-04-30 09:13 | 33.28473 | 130.65260 | 12427 ft | 352 kts | 124° |
| 2026-04-30 09:13 | 33.27626 | 130.68064 | 13041 ft | 369 kts | 102° |
| 2026-04-30 09:13 | 33.27701 | 130.71171 | 13657 ft | 383 kts | 79° |
| 2026-04-30 09:13 | 33.28432 | 130.74266 | 14235 ft | 390 kts | 76° |
| 2026-04-30 09:14 | 33.29213 | 130.77395 | 14805 ft | 395 kts | 75° |
| 2026-04-30 09:14 | 33.30005 | 130.80546 | 15345 ft | 399 kts | 76° |
| 2026-04-30 09:14 | 33.30803 | 130.83743 | 15907 ft | 404 kts | 76° |
| 2026-04-30 09:14 | 33.31604 | 130.86985 | 16468 ft | 409 kts | 76° |
| 2026-04-30 09:15 | 33.32408 | 130.90268 | 17072 ft | 413 kts | 76° |
| 2026-04-30 09:15 | 33.33216 | 130.93586 | 17645 ft | 418 kts | 77° |
| 2026-04-30 09:15 | 33.34033 | 130.96943 | 18204 ft | 422 kts | 77° |
| 2026-04-30 09:15 | 33.34579 | 130.99186 | 18531 ft | 425 kts | 77° |
| 2026-04-30 09:16 | 33.35410 | 131.02598 | 19019 ft | 430 kts | 77° |
| 2026-04-30 09:16 | 33.36248 | 131.06045 | 19520 ft | 434 kts | 77° |
| 2026-04-30 09:16 | 33.37092 | 131.09530 | 20000 ft | 438 kts | 77° |
| 2026-04-30 09:16 | 33.37942 | 131.13046 | 20477 ft | 442 kts | 78° |
| 2026-04-30 09:17 | 33.38816 | 131.16603 | 20933 ft | 447 kts | 76° |
| 2026-04-30 09:17 | 33.39787 | 131.20157 | 21406 ft | 452 kts | 75° |
| 2026-04-30 09:17 | 33.40843 | 131.23720 | 21857 ft | 456 kts | 73° |
| 2026-04-30 09:17 | 33.41947 | 131.27297 | 22313 ft | 461 kts | 73° |
| 2026-04-30 09:18 | 33.43068 | 131.30909 | 22767 ft | 464 kts | 73° |
| 2026-04-30 09:18 | 33.44184 | 131.34555 | 23216 ft | 468 kts | 74° |
| 2026-04-30 09:18 | 33.45292 | 131.38237 | 23625 ft | 472 kts | 74° |
| 2026-04-30 09:18 | 33.46394 | 131.41951 | 24001 ft | 475 kts | 75° |
| 2026-04-30 09:19 | 33.47494 | 131.45696 | 24388 ft | 478 kts | 75° |
| 2026-04-30 09:19 | 33.48592 | 131.49466 | 24766 ft | 481 kts | 75° |
| 2026-04-30 09:19 | 33.49695 | 131.53260 | 25138 ft | 484 kts | 74° |
| 2026-04-30 09:19 | 33.50811 | 131.57091 | 25508 ft | 487 kts | 74° |
| 2026-04-30 09:20 | 33.51917 | 131.60891 | 25862 ft | 490 kts | 74° |
| 2026-04-30 09:20 | 33.53040 | 131.64754 | 26207 ft | 493 kts | 74° |
| 2026-04-30 09:20 | 33.54174 | 131.68653 | 26559 ft | 496 kts | 74° |
| 2026-04-30 09:20 | 33.55314 | 131.72566 | 26903 ft | 498 kts | 74° |
| 2026-04-30 09:21 | 33.56462 | 131.76491 | 27241 ft | 501 kts | 74° |
| 2026-04-30 09:21 | 33.57616 | 131.80437 | 27570 ft | 503 kts | 74° |
| 2026-04-30 09:21 | 33.58776 | 131.84406 | 27897 ft | 506 kts | 74° |
| 2026-04-30 09:21 | 33.59936 | 131.88400 | 28217 ft | 508 kts | 74° |
| 2026-04-30 09:22 | 33.61097 | 131.92413 | 28537 ft | 511 kts | 74° |
| 2026-04-30 09:22 | 33.62264 | 131.96457 | 28852 ft | 513 kts | 74° |
| 2026-04-30 09:22 | 33.63432 | 132.00511 | 29157 ft | 516 kts | 74° |
| 2026-04-30 09:22 | 33.64604 | 132.04590 | 29455 ft | 518 kts | 74° |
| 2026-04-30 09:23 | 33.65780 | 132.08689 | 29750 ft | 521 kts | 74° |
| 2026-04-30 09:23 | 33.66965 | 132.12810 | 30018 ft | 523 kts | 74° |
| 2026-04-30 09:23 | 33.68155 | 132.16948 | 30244 ft | 526 kts | 74° |
| 2026-04-30 09:23 | 33.68557 | 132.18350 | 30317 ft | 527 kts | 74° |
| 2026-04-30 09:24 | 33.69360 | 132.21061 | 30325 ft | 527 kts | 73° |
| 2026-04-30 09:24 | 33.70597 | 132.25238 | 30462 ft | 530 kts | 73° |
| 2026-04-30 09:24 | 33.71799 | 132.29433 | 30701 ft | 532 kts | 74° |
| 2026-04-30 09:25 | 33.72983 | 132.33649 | 30874 ft | 534 kts | 75° |
| 2026-04-30 09:25 | 33.74150 | 132.37834 | 30906 ft | 521 kts | 75° |
| 2026-04-30 09:25 | 33.75292 | 132.41909 | 30905 ft | 510 kts | 75° |
| 2026-04-30 09:25 | 33.76422 | 132.45928 | 30906 ft | 506 kts | 75° |
| 2026-04-30 09:26 | 33.78685 | 132.53929 | 30899 ft | 505 kts | 75° |
| 2026-04-30 09:26 | 33.80955 | 132.61915 | 30892 ft | 505 kts | 75° |
| 2026-04-30 09:27 | 33.83006 | 132.69956 | 30892 ft | 499 kts | 84° |
| 2026-04-30 09:27 | 33.83873 | 132.78196 | 30890 ft | 496 kts | 89° |
| 2026-04-30 09:28 | 33.84671 | 132.86439 | 30893 ft | 496 kts | 89° |
| 2026-04-30 09:28 | 33.85769 | 132.94657 | 30891 ft | 502 kts | 78° |
| 2026-04-30 09:29 | 33.87680 | 133.02746 | 30910 ft | 502 kts | 78° |
| 2026-04-30 09:29 | 33.89568 | 133.10843 | 30927 ft | 502 kts | 79° |
| 2026-04-30 09:30 | 33.91441 | 133.18937 | 30907 ft | 501 kts | 79° |
| 2026-04-30 09:30 | 33.92366 | 133.22942 | 30663 ft | 492 kts | 79° |
| 2026-04-30 09:30 | 33.93280 | 133.26896 | 30235 ft | 488 kts | 79° |
| 2026-04-30 09:31 | 33.94187 | 133.30838 | 29613 ft | 488 kts | 79° |
| 2026-04-30 09:31 | 33.95088 | 133.34766 | 29078 ft | 485 kts | 79° |
| 2026-04-30 09:31 | 33.95997 | 133.38727 | 28534 ft | 483 kts | 79° |
| 2026-04-30 09:31 | 33.96892 | 133.42616 | 27995 ft | 481 kts | 79° |
| 2026-04-30 09:32 | 33.97785 | 133.46492 | 27465 ft | 479 kts | 79° |
| 2026-04-30 09:32 | 33.98674 | 133.50349 | 26963 ft | 476 kts | 79° |
| 2026-04-30 09:32 | 33.99540 | 133.54122 | 26537 ft | 472 kts | 79° |
| 2026-04-30 09:32 | 34.00333 | 133.57600 | 26124 ft | 468 kts | 79° |
| 2026-04-30 09:33 | 34.01205 | 133.61421 | 25647 ft | 466 kts | 79° |
| 2026-04-30 09:33 | 34.02061 | 133.65180 | 25184 ft | 464 kts | 79° |
| 2026-04-30 09:33 | 34.02912 | 133.68924 | 24688 ft | 463 kts | 78° |
| 2026-04-30 09:33 | 34.03759 | 133.72657 | 24285 ft | 459 kts | 78° |
| 2026-04-30 09:34 | 34.04598 | 133.76361 | 23880 ft | 456 kts | 78° |
| 2026-04-30 09:34 | 34.05380 | 133.80040 | 23444 ft | 450 kts | 84° |
| 2026-04-30 09:34 | 34.05742 | 133.83747 | 22925 ft | 442 kts | 90° |
| 2026-04-30 09:34 | 34.05988 | 133.87424 | 22471 ft | 438 kts | 90° |
| 2026-04-30 09:35 | 34.06238 | 133.91078 | 22005 ft | 435 kts | 90° |
| 2026-04-30 09:35 | 34.06488 | 133.94702 | 21563 ft | 432 kts | 89° |
| 2026-04-30 09:35 | 34.06735 | 133.98295 | 21141 ft | 429 kts | 89° |
| 2026-04-30 09:35 | 34.06980 | 134.01862 | 20741 ft | 425 kts | 89° |
| 2026-04-30 09:36 | 34.07221 | 134.05405 | 20317 ft | 422 kts | 89° |
| 2026-04-30 09:36 | 34.07458 | 134.08901 | 19668 ft | 415 kts | 89° |
| 2026-04-30 09:36 | 34.07690 | 134.12351 | 19034 ft | 412 kts | 88° |
| 2026-04-30 09:36 | 34.07915 | 134.15770 | 18741 ft | 406 kts | 88° |
| 2026-04-30 09:37 | 34.08138 | 134.19161 | 18322 ft | 404 kts | 88° |
| 2026-04-30 09:37 | 34.08374 | 134.22526 | 17891 ft | 402 kts | 86° |
| 2026-04-30 09:37 | 34.08712 | 134.25815 | 17493 ft | 399 kts | 84° |
| 2026-04-30 09:37 | 34.09145 | 134.29109 | 17028 ft | 393 kts | 82° |
| 2026-04-30 09:38 | 34.09619 | 134.32337 | 16361 ft | 387 kts | 81° |
| 2026-04-30 09:38 | 34.10094 | 134.35478 | 15946 ft | 374 kts | 81° |
| 2026-04-30 09:38 | 34.10545 | 134.38510 | 15549 ft | 361 kts | 82° |
| 2026-04-30 09:38 | 34.10965 | 134.41446 | 15162 ft | 351 kts | 82° |
| 2026-04-30 09:39 | 34.11360 | 134.44331 | 14774 ft | 352 kts | 82° |
| 2026-04-30 09:39 | 34.11737 | 134.47162 | 14389 ft | 352 kts | 82° |
| 2026-04-30 09:39 | 34.12120 | 134.50078 | 13997 ft | 352 kts | 82° |
| 2026-04-30 09:39 | 34.12503 | 134.52999 | 13577 ft | 353 kts | 83° |
| 2026-04-30 09:40 | 34.12887 | 134.55917 | 13200 ft | 350 kts | 83° |
| 2026-04-30 09:40 | 34.13271 | 134.58819 | 12763 ft | 350 kts | 83° |
| 2026-04-30 09:40 | 34.13653 | 134.61707 | 12358 ft | 348 kts | 83° |
| 2026-04-30 09:40 | 34.14032 | 134.64593 | 11934 ft | 347 kts | 83° |
| 2026-04-30 09:41 | 34.14408 | 134.67467 | 11516 ft | 346 kts | 83° |
| 2026-04-30 09:41 | 34.14790 | 134.70332 | 11094 ft | 345 kts | 82° |
| 2026-04-30 09:41 | 34.15467 | 134.72979 | 10669 ft | 347 kts | 66° |
| 2026-04-30 09:41 | 34.16518 | 134.75391 | 10259 ft | 346 kts | 62° |
| 2026-04-30 09:42 | 34.17674 | 134.77946 | 9787 ft | 347 kts | 62° |
| 2026-04-30 09:42 | 34.18833 | 134.80489 | 9301 ft | 345 kts | 63° |
| 2026-04-30 09:42 | 34.19987 | 134.83015 | 8812 ft | 342 kts | 63° |
| 2026-04-30 09:42 | 34.21129 | 134.85527 | 8347 ft | 340 kts | 64° |
| 2026-04-30 09:43 | 34.22261 | 134.88028 | 7856 ft | 338 kts | 65° |
| 2026-04-30 09:43 | 34.23384 | 134.90512 | 7367 ft | 336 kts | 65° |
| 2026-04-30 09:43 | 34.24487 | 134.92995 | 6847 ft | 334 kts | 66° |
| 2026-04-30 09:43 | 34.25738 | 134.95373 | 6310 ft | 337 kts | 57° |
| 2026-04-30 09:44 | 34.27249 | 134.97547 | 5740 ft | 337 kts | 53° |
| 2026-04-30 09:44 | 34.28759 | 134.99682 | 5184 ft | 328 kts | 55° |
| 2026-04-30 09:44 | 34.30166 | 135.01759 | 4646 ft | 311 kts | 56° |
| 2026-04-30 09:44 | 34.31491 | 135.03739 | 4155 ft | 295 kts | 56° |
| 2026-04-30 09:45 | 34.32760 | 135.05621 | 3661 ft | 282 kts | 55° |
| 2026-04-30 09:45 | 34.33985 | 135.07439 | 2868 ft | 279 kts | 54° |
| 2026-04-30 09:45 | 34.35186 | 135.09219 | 2412 ft | 265 kts | 53° |
| 2026-04-30 09:45 | 34.36314 | 135.10891 | 2049 ft | 244 kts | 53° |
| 2026-04-30 09:46 | 34.37320 | 135.12384 | 1736 ft | 218 kts | 52° |
| 2026-04-30 09:46 | 34.38203 | 135.13694 | 1461 ft | 200 kts | 52° |
| 2026-04-30 09:46 | 34.39058 | 135.14968 | 1227 ft | 187 kts | 52° |
| 2026-04-30 09:46 | 34.39848 | 135.16142 | 960 ft | 173 kts | 52° |
| 2026-04-30 09:47 | 34.40567 | 135.17210 | 745 ft | 155 kts | 52° |
| 2026-04-30 09:47 | 34.41213 | 135.18168 | 555 ft | 143 kts | 52° |
| 2026-04-30 09:47 | 34.41834 | 135.19084 | 358 ft | 139 kts | 52° |
| 2026-04-30 09:47 | 34.42439 | 135.19987 | 192 ft | 136 kts | 53° |
| 2026-04-30 09:48 | 34.43031 | 135.20878 | 43 ft | 132 kts | 52° |
| 2026-04-30 09:48 | 34.43543 | 135.21643 | 35 ft | 97 kts | 51° |
| 2026-04-30 09:48 | 34.43859 | 135.22116 | 31 ft | 47 kts | 50° |
| 2026-04-30 09:48 | 34.44024 | 135.22373 | 33 ft | 34 kts | 58° |
| 2026-04-30 09:49 | 34.44100 | 135.22602 | 30 ft | 26 kts | 80° |
| 2026-04-30 09:49 | 34.44115 | 135.22745 | 29 ft | 14 kts | 82° |
| 2026-04-30 09:49 | 34.44110 | 135.22867 | 29 ft | 15 kts | 126° |
| 2026-04-30 09:49 | 34.44039 | 135.22940 | 29 ft | 12 kts | 141° |
| 2026-04-30 09:50 | 34.44018 | 135.22960 | 29 ft | 0 kts | 141° |
| 2026-04-30 09:50 | 34.44016 | 135.22962 | 29 ft | 3 kts | 143° |
| 2026-04-30 09:50 | 34.43966 | 135.22985 | 29 ft | 8 kts | 154° |
| 2026-04-30 09:50 | 34.43924 | 135.23024 | 29 ft | 7 kts | 141° |
| 2026-04-30 09:51 | 34.43908 | 135.23040 | 29 ft | 1 kts | 144° |
| 2026-04-30 09:51 | 34.43904 | 135.23043 | 29 ft | 0 kts | 147° |
| 2026-04-30 09:51 | 34.43899 | 135.23044 | 29 ft | 1 kts | 168° |
| 2026-04-30 09:51 | 34.43896 | 135.23044 | 29 ft | 0 kts | 171° |